Nearby METAR Reports

 

KLXT - Lees Summit Muni, Missouri, USA
Distance from station: E 5mi, 9km
Updated: Fri, 01-Aug-2014 6:53pm CDT
Clear
Clear
 Wind from E
Wind: E 6 mph , 9 km/h
Temperature: 82°F , 28°C
Heat Index: 82°F , 28°C
Dew Point: 61°F , 16°C
Humidity: 48%
Barometer: 30.05 inHg , 1017.6 hPa
Clouds: Clear
Visibility: 10 miles , 16 km
2014/08/01 23:53 KLXT 012353Z AUTO 10005KT 10SM CLR 28/16 A3005 RMK AO2 SLP168 T02780161 10289 20267 56006
KMKC - Kansas City/Dntn, Missouri, USA
Distance from station: NW 12mi, 19km
Updated: Fri, 01-Aug-2014 6:54pm CDT
Clear
Clear
 Wind from ENE
Wind: ENE 12 mph , 19 km/h
Temperature: 82°F , 28°C
Heat Index: 83°F , 28°C
Dew Point: 63°F , 17°C
Humidity: 51%
Barometer: 30.03 inHg , 1016.9 hPa
Clouds: Clear
Visibility: 10 miles , 16 km
2014/08/01 23:54 KMKC 012354Z 06010KT 10SM CLR 28/17 A3003 RMK AO2 SLP160 T02830167 10306 20278 56006
 
KIXD - Olathe/Industria, Kansas, USA
Distance from station: WSW 25mi, 41km
Updated: Fri, 01-Aug-2014 6:53pm CDT
Clear
Clear
 Wind from ESE
Wind: ESE 8 mph , 13 km/h
Temperature: 82°F , 28°C
Heat Index: 82°F , 28°C
Dew Point: 61°F , 16°C
Humidity: 48%
Barometer: 30.04 inHg , 1017.3 hPa
Clouds: Clear
Visibility: 10 miles , 16 km
2014/08/01 23:53 KIXD 012353Z 11007KT 10SM CLR 28/16 A3004 RMK AO2 SLP162 T02830161 10300 20278 56006
KMCI - Kansas City/Intl, Missouri, USA
Distance from station: NW 26mi, 42km
Updated: Fri, 01-Aug-2014 6:53pm CDT
Clear
Clear
 Wind from ENE
Wind: ENE 9 mph , 15 km/h
Temperature: 82°F , 28°C
Heat Index: 82°F , 28°C
Dew Point: 61°F , 16°C
Humidity: 48%
Barometer: 30.04 inHg , 1017.3 hPa
Clouds: Clear
Visibility: 10 miles , 16 km
2014/08/01 23:53 KMCI 012353Z 07008KT 10SM CLR 28/16 A3004 RMK AO2 SLP164 T02780161 10294 20267 56007
 
KRCM - Warrensburg Skyh, Missouri, USA
Distance from station: ESE 38mi, 62km
Updated: Fri, 01-Aug-2014 6:35pm CDT
Clear
Clear
 Wind from NE
Wind: NE 3 mph , 6 km/h
Temperature: 81°F , 27°C
Heat Index: 82°F , 28°C
Dew Point: 61°F , 16°C
Humidity: 51%
Barometer: 30.05 inHg , 1017.6 hPa
Clouds: Clear
Visibility: 10 miles , 16 km
2014/08/01 23:35 KRCM 012335Z AUTO 04003KT 10SM CLR 27/16 A3005 RMK AO2
KLWC - Lawrence, Kansas, USA
Distance from station: W 40mi, 65km
Updated: Fri, 01-Aug-2014 6:52pm CDT
Clear
Clear
 Wind from ESE
Wind: ESE 6 mph , 9 km/h
Temperature: 84°F , 29°C
Heat Index: 85°F , 29°C
Dew Point: 63°F , 17°C
Humidity: 48%
Barometer: 30.02 inHg , 1016.6 hPa
Clouds: Clear
Visibility: 10 miles , 16 km
2014/08/01 23:52 KLWC 012352Z AUTO 11005KT 10SM CLR 29/17 A3002 RMK AO2 SLP158 T02940172 10317 20283 56005
 
KSZL - Whiteman Afb, Missouri, USA
Distance from station: ESE 53mi, 86km
Updated: Fri, 01-Aug-2014 6:58pm CDT
Clear
Clear
 Wind from ENE
Wind: ENE 7 mph , 11 km/h
Temperature: 81°F , 27°C
Dew Point: 52°F , 11°C
Humidity: 37%
Barometer: 30.05 inHg , 1017.6 hPa
Clouds: Clear
Visibility: 10 miles , 16 km
2014/08/01 23:58 KSZL 012358Z AUTO 06006KT 10SM CLR 27/11 A3005 RMK AO2 SLP173 T02700108 10287 20253 402870153 57008
KSTJ - St. Joseph, Missouri, USA
Distance from station: NNW 59mi, 95km
Updated: Fri, 01-Aug-2014 6:53pm CDT
Clear
Clear
 Wind from ESE
Wind: ESE 7 mph , 11 km/h
Temperature: 82°F , 28°C
Heat Index: 82°F , 28°C
Dew Point: 61°F , 16°C
Humidity: 48%
Barometer: 30.04 inHg , 1017.3 hPa
Clouds: Clear
Visibility: 10 miles , 16 km
2014/08/01 23:53 KSTJ 012353Z AUTO 11006KT 10SM CLR 28/16 A3004 RMK AO2 SLP166 T02780161 10294 20261 56007
 
KGLY - Clinton, Missouri, USA
Distance from station: SE 61mi, 98km
Updated: Fri, 01-Aug-2014 7:15pm CDT
Clear
Clear
 Wind from NNE
Wind: NNE 5 mph , 7 km/h
Temperature: 81°F , 27°C
Heat Index: 83°F , 28°C
Dew Point: 66°F , 19°C
Humidity: 62%
Barometer: 30.05 inHg , 1017.6 hPa
Clouds: Clear
Visibility: 10 miles , 16 km
2014/08/02 00:15 KGLY 020015Z AUTO 03004KT 10SM CLR 27/19 A3005 RMK AO2
KFOE - Topeka/Forbes, Kansas, USA
Distance from station: W 64mi, 103km
Updated: Fri, 01-Aug-2014 6:53pm CDT
Mostly cloudy
Mostly cloudy
 Wind from E
Wind: E 10 mph , 17 km/h
Temperature: 84°F , 29°C
Heat Index: 84°F , 29°C
Dew Point: 61°F , 16°C
Humidity: 45%
Barometer: 30.00 inHg , 1015.9 hPa
Clouds: Mostly cloudy
Visibility: 10 miles , 16 km
Cloud details: Few Clouds 6500 ft
Mostly cloudy 8500 ft
Mostly cloudy 11000 ft
2014/08/01 23:53 KFOE 012353Z 10009KT 10SM FEW065 BKN085 BKN110 29/16 A3000 RMK AO2 SLP151 T02890161 10322 20289 56007
 
KDMO - Sedalia, Missouri, USA
Distance from station: ESE 72mi, 116km
Updated: Fri, 01-Aug-2014 6:53pm CDT
Overcast
Overcast
 Wind from NE
Wind: NE 8 mph , 13 km/h
Temperature: 81°F , 27°C
Heat Index: 82°F , 28°C
Dew Point: 61°F , 16°C
Humidity: 51%
Barometer: 30.06 inHg , 1017.9 hPa
Clouds: Overcast
Visibility: 8 miles , 13 km
Cloud details: Overcast 10000 ft
2014/08/01 23:53 KDMO 012353Z AUTO 04007KT 8SM OVC100 27/16 A3006 RMK AO2 SLP172 T02720161 10289 20239 56005
KCDJ - Chillicothe, Missouri, USA
Distance from station: NE 74mi, 120km
Updated: Fri, 01-Aug-2014 6:52pm CDT

 Wind from calm
Wind: Calm
Temperature: 84°F , 29°C
Heat Index: 84°F , 29°C
Dew Point: 59°F , 15°C
Humidity: 43%
Barometer: 30.05 inHg , 1017.6 hPa
2014/08/01 23:52 KCDJ 012352Z AUTO 00000KT 29/15 A3005 RMK AO1 SLP164 T02890150 10300 20256 58006
 
KFNB - Falls City/Brenn, Nebraska, USA
Distance from station: NW 96mi, 154km
Updated: Fri, 01-Aug-2014 6:53pm CDT
Clear
Clear
 Wind from E
Wind: E 7 mph , 11 km/h
Temperature: 82°F , 28°C
Heat Index: 83°F , 28°C
Dew Point: 63°F , 17°C
Humidity: 51%
Barometer: 30.04 inHg , 1017.3 hPa
Clouds: Clear
Visibility: 10 miles , 16 km
2014/08/01 23:53 KFNB 012353Z AUTO 09006KT 10SM CLR 28/17 A3004 RMK AO2 SLP165 T02780172 10300 20261 56005
KVER - Boonville, Missouri, USA
Distance from station: E 96mi, 154km
Updated: Fri, 01-Aug-2014 6:55pm CDT
Clear
Clear
 Wind from calm
Wind: Calm
Temperature: 82°F , 28°C
Heat Index: 82°F , 28°C
Dew Point: 57°F , 14°C
Humidity: 42%
Barometer: 30.05 inHg , 1017.6 hPa
Clouds: Clear
Visibility: 10 miles , 16 km
2014/08/01 23:55 KVER 012355Z AUTO 00000KT 10SM CLR 28/14 A3005 RMK AO2 T02790139 10342 20124